createdAt,value
2018-08-08T00:00:50.282Z,1.10
2018-08-08T00:03:18.232Z,1.40
2018-08-08T00:05:46.171Z,2.13
2018-08-08T00:08:14.094Z,3.63
2018-08-08T00:10:42.023Z,3.40
2018-08-08T00:13:09.943Z,3.43
2018-08-08T00:15:37.884Z,3.30
2018-08-08T00:18:05.805Z,3.27
2018-08-08T00:20:33.738Z,3.73
2018-08-08T00:23:01.796Z,3.37
2018-08-08T00:25:30.067Z,4.10
2018-08-08T00:27:58.003Z,3.20
2018-08-08T00:30:25.987Z,3.80
2018-08-08T00:32:53.936Z,4.27
2018-08-08T00:35:21.849Z,3.30
2018-08-08T00:37:49.777Z,3.10
2018-08-08T00:40:17.885Z,3.57
2018-08-08T00:42:45.851Z,4.63
2018-08-08T00:45:15.080Z,3.93
2018-08-08T00:47:43.799Z,4.07
2018-08-08T00:50:13.134Z,4.03
2018-08-08T00:52:41.638Z,3.63
2018-08-08T00:55:09.927Z,3.50
2018-08-08T00:57:38.308Z,3.27
2018-08-08T01:00:07.316Z,3.33
2018-08-08T01:02:35.884Z,2.60
2018-08-08T01:05:04.817Z,3.00
2018-08-08T01:07:32.763Z,2.97
2018-08-08T01:10:00.691Z,4.23
2018-08-08T01:12:28.632Z,3.97
2018-08-08T01:14:56.547Z,3.80
2018-08-08T01:17:24.483Z,3.90
2018-08-08T01:19:52.413Z,3.10
2018-08-08T01:22:20.343Z,3.43
2018-08-08T01:24:48.383Z,2.70
2018-08-08T01:27:16.313Z,3.13
2018-08-08T01:29:44.236Z,2.90
2018-08-08T01:32:12.195Z,2.70
2018-08-08T01:34:40.124Z,2.23
2018-08-08T01:37:08.084Z,2.70
2018-08-08T01:39:36.008Z,1.90
2018-08-08T01:42:03.969Z,2.20
2018-08-08T01:44:31.892Z,2.03
2018-08-08T01:46:59.936Z,2.23
2018-08-08T01:49:27.856Z,2.30
2018-08-08T01:51:55.773Z,1.50
2018-08-08T01:54:23.825Z,1.70
2018-08-08T01:56:51.884Z,2.23
2018-08-08T01:59:19.806Z,3.00
2018-08-08T02:01:47.923Z,2.90
2018-08-08T02:04:15.865Z,2.60
2018-08-08T02:06:43.827Z,2.43
2018-08-08T02:09:11.761Z,3.07
2018-08-08T02:11:39.697Z,2.40
2018-08-08T02:14:07.692Z,2.63
2018-08-08T02:16:35.766Z,3.70
2018-08-08T02:19:03.679Z,3.93
2018-08-08T02:21:31.795Z,3.60
2018-08-08T02:23:59.919Z,3.27
2018-08-08T02:26:27.894Z,3.17
2018-08-08T02:28:55.775Z,2.80
2018-08-08T02:31:23.708Z,3.43
2018-08-08T02:33:51.624Z,3.00
2018-08-08T02:36:19.567Z,3.30
2018-08-08T02:38:47.484Z,3.20
2018-08-08T02:41:15.403Z,2.80
2018-08-08T02:43:43.347Z,3.73
2018-08-08T02:46:11.264Z,3.50
2018-08-08T02:48:39.204Z,4.83
2018-08-08T02:51:07.126Z,3.67
2018-08-08T02:53:35.145Z,2.80
2018-08-08T02:56:03.068Z,3.20
2018-08-08T02:58:31.023Z,2.83
2018-08-08T03:00:59.005Z,2.47
2018-08-08T03:03:26.982Z,3.07
2018-08-08T03:05:54.891Z,3.87
2018-08-08T03:08:22.841Z,2.50
2018-08-08T03:10:50.768Z,3.57
2018-08-08T03:13:18.750Z,3.77
2018-08-08T03:15:46.668Z,3.80
2018-08-08T03:18:14.599Z,3.90
2018-08-08T03:20:42.517Z,3.97
2018-08-08T03:23:10.439Z,3.70
2018-08-08T03:25:38.371Z,4.20
2018-08-08T03:28:06.292Z,3.20
2018-08-08T03:30:34.219Z,3.10
2018-08-08T03:33:02.155Z,3.10
2018-08-08T03:35:30.139Z,3.30
2018-08-08T03:37:58.075Z,4.60
2018-08-08T03:40:26.110Z,4.27
2018-08-08T03:42:59.528Z,3.73
2018-08-08T03:45:27.436Z,4.50
2018-08-08T03:47:59.958Z,4.60
2018-08-08T03:50:31.387Z,4.20
2018-08-08T15:28:07.822Z,3.70
2018-08-08T15:30:36.160Z,3.50
2018-08-08T15:33:04.372Z,3.63
2018-08-08T15:35:32.548Z,3.03
2018-08-08T15:38:00.739Z,3.40
2018-08-08T15:40:29.172Z,3.27
2018-08-08T15:42:57.376Z,3.70
2018-08-08T15:45:25.540Z,3.80
2018-08-08T15:47:53.866Z,3.77
2018-08-08T15:50:22.041Z,4.20
2018-08-08T15:52:50.788Z,3.80
2018-08-08T15:55:18.967Z,4.13
2018-08-08T15:57:47.157Z,3.60
2018-08-08T16:00:15.437Z,3.60
2018-08-08T16:02:43.649Z,3.77
2018-08-08T16:05:12.404Z,3.30
2018-08-08T16:07:40.584Z,3.30
2018-08-08T16:10:10.224Z,3.60
2018-08-08T16:12:38.403Z,3.60
2018-08-08T16:15:07.079Z,4.33
2018-08-08T16:17:35.409Z,4.13
2018-08-08T16:20:03.669Z,4.00
2018-08-08T16:22:32.155Z,3.90
2018-08-08T16:25:00.840Z,3.60
2018-08-08T16:27:29.144Z,3.97
2018-08-08T16:29:57.308Z,3.23
2018-08-08T16:32:25.467Z,3.60
2018-08-08T16:34:54.130Z,3.40
2018-08-08T16:37:22.300Z,3.50
2018-08-08T16:39:50.539Z,4.13
2018-08-08T16:42:18.700Z,3.13
2018-08-08T16:44:46.928Z,3.50
2018-08-08T16:47:15.081Z,4.20
2018-08-08T16:49:43.475Z,3.33
2018-08-08T16:52:11.851Z,3.90
2018-08-08T16:54:40.041Z,3.77
2018-08-08T16:57:08.438Z,3.60
2018-08-08T16:59:36.568Z,3.03
2018-08-08T17:02:04.961Z,3.07
2018-08-08T17:04:33.116Z,3.10
2018-08-08T17:07:01.297Z,2.30
2018-08-08T17:09:29.550Z,2.23
2018-08-08T17:11:57.707Z,2.73
2018-08-08T17:14:25.902Z,2.40
2018-08-08T17:16:54.025Z,1.80
2018-08-08T17:19:22.204Z,2.60
2018-08-08T17:21:50.371Z,2.73
2018-08-08T17:24:18.544Z,2.60
2018-08-08T17:26:46.822Z,2.30
2018-08-08T17:29:15.196Z,2.37
2018-08-08T17:31:43.371Z,2.03
2018-08-08T17:34:11.558Z,2.20
2018-08-08T17:36:39.732Z,2.80
2018-08-08T17:39:08.922Z,2.90
2018-08-08T17:41:37.100Z,2.33
2018-08-08T17:44:05.365Z,2.60
2018-08-08T17:46:33.608Z,2.40
2018-08-08T17:49:01.937Z,2.27
2018-08-08T17:51:30.101Z,2.50
2018-08-08T17:53:58.259Z,2.00
2018-08-08T17:56:26.669Z,2.27
2018-08-08T17:58:55.420Z,2.10
2018-08-08T18:01:23.588Z,2.30
2018-08-08T18:03:51.864Z,2.30
2018-08-08T18:06:20.035Z,2.60
2018-08-08T18:08:48.211Z,2.40
2018-08-08T18:11:16.441Z,2.40
2018-08-08T18:13:44.618Z,2.50
2018-08-08T18:16:12.765Z,2.30
2018-08-08T18:18:40.940Z,2.33
2018-08-08T18:21:09.113Z,2.00
2018-08-08T18:23:37.300Z,1.87
2018-08-08T18:26:05.449Z,2.30
2018-08-08T18:28:33.604Z,1.93
2018-08-08T18:31:01.764Z,2.00
2018-08-08T18:33:30.068Z,2.53
2018-08-08T18:35:58.452Z,1.93
2018-08-08T18:38:26.637Z,1.60
2018-08-08T18:40:55.382Z,1.80
2018-08-08T18:43:23.572Z,2.10
2018-08-08T18:45:51.933Z,1.90
2018-08-08T18:48:20.287Z,1.80
2018-08-08T18:50:48.528Z,1.43
2018-08-08T18:53:16.752Z,1.60
2018-08-08T18:55:44.905Z,1.70
2018-08-08T18:58:13.064Z,1.70
2018-08-08T19:00:41.228Z,1.70
2018-08-08T19:03:09.395Z,1.70
2018-08-08T19:05:37.551Z,1.43
2018-08-08T19:08:05.952Z,1.60
2018-08-08T19:10:34.097Z,1.53
2018-08-08T19:13:02.278Z,1.40
2018-08-08T19:15:30.451Z,1.10
2018-08-08T19:17:58.632Z,1.80
2018-08-08T19:20:26.814Z,1.27
2018-08-08T19:22:54.985Z,1.20
2018-08-08T19:25:23.153Z,1.73
2018-08-08T19:27:51.361Z,1.47
2018-08-08T19:30:19.551Z,1.30
2018-08-08T19:32:47.723Z,1.90
2018-08-08T19:35:15.926Z,1.70
2018-08-08T19:37:44.114Z,1.40
2018-08-08T19:40:12.285Z,1.40
2018-08-08T19:42:40.468Z,1.60
2018-08-08T19:45:08.643Z,1.60
2018-08-08T19:47:36.862Z,1.40
2018-08-08T19:50:05.743Z,1.73
2018-08-08T19:52:34.457Z,1.40
2018-08-08T19:55:09.321Z,1.53
2018-08-08T19:57:37.485Z,1.70
2018-08-08T20:00:06.083Z,1.90
2018-08-08T20:02:34.282Z,1.60
2018-08-08T20:05:02.464Z,1.30
2018-08-08T20:07:30.640Z,1.47
2018-08-08T20:09:59.148Z,1.17
2018-08-08T20:12:27.778Z,1.10
2018-08-08T20:14:56.163Z,1.40
2018-08-08T20:17:24.342Z,1.10
2018-08-08T20:19:52.720Z,1.20
2018-08-08T20:22:20.893Z,1.00
2018-08-08T20:24:49.077Z,1.20
2018-08-08T20:27:17.267Z,1.50
2018-08-08T20:29:45.456Z,1.20
2018-08-08T20:32:13.626Z,1.50
2018-08-08T20:34:42.000Z,1.47
2018-08-08T20:37:10.181Z,1.27
2018-08-08T20:39:38.353Z,1.17
2018-08-08T20:42:06.516Z,1.10
2018-08-08T20:44:34.720Z,1.30
2018-08-08T20:47:02.955Z,1.40
2018-08-08T20:49:31.503Z,1.40
2018-08-08T20:51:59.980Z,1.30
2018-08-08T20:54:28.154Z,1.20
2018-08-08T20:56:56.325Z,1.40
2018-08-08T20:59:24.619Z,1.00
2018-08-08T21:01:52.817Z,1.10
2018-08-08T21:04:21.093Z,1.10
2018-08-08T21:06:49.416Z,0.90
2018-08-08T21:09:17.627Z,1.30
2018-08-08T21:11:45.771Z,1.30
2018-08-08T21:14:13.962Z,1.33
2018-08-08T21:16:42.171Z,1.20
2018-08-08T21:19:10.341Z,1.00
2018-08-08T21:21:38.545Z,0.90
2018-08-08T21:24:06.764Z,0.90
2018-08-08T21:26:34.933Z,0.73
2018-08-08T21:29:03.101Z,0.80
2018-08-08T21:31:31.681Z,0.60
2018-08-08T21:33:59.917Z,0.70
2018-08-08T21:36:28.208Z,0.70
2018-08-08T21:38:56.375Z,0.60
2018-08-08T21:41:24.552Z,0.70
2018-08-08T21:43:52.753Z,0.70
2018-08-08T21:46:21.067Z,0.90
2018-08-08T21:48:49.229Z,0.90
2018-08-08T21:51:18.240Z,0.97
2018-08-08T21:53:57.887Z,0.77
2018-08-08T21:56:37.469Z,0.83
2018-08-08T22:01:17.991Z,0.80
2018-08-08T22:03:57.635Z,0.83
2018-08-08T22:06:37.169Z,0.80
2018-08-08T22:09:16.701Z,0.80
2018-08-08T22:11:56.512Z,0.70
2018-08-08T22:14:36.036Z,0.80
2018-08-08T22:17:15.564Z,1.00
2018-08-08T22:19:44.992Z,1.30
2018-08-08T22:22:14.169Z,1.40
2018-08-08T22:24:42.340Z,1.40
2018-08-08T22:27:10.700Z,1.20
2018-08-08T22:29:38.889Z,1.10
2018-08-08T22:32:07.080Z,1.23
2018-08-08T22:34:36.348Z,1.10
2018-08-08T22:37:04.700Z,1.10
2018-08-08T22:39:33.115Z,1.07
2018-08-08T22:42:01.593Z,1.13
2018-08-08T22:44:29.767Z,1.30
2018-08-08T22:46:58.161Z,1.20
2018-08-08T22:49:26.323Z,0.90
2018-08-08T22:51:54.665Z,0.97
2018-08-08T22:54:22.854Z,1.00
2018-08-08T22:56:51.083Z,1.00
2018-08-08T22:59:19.249Z,0.80
2018-08-08T23:01:47.496Z,1.10
2018-08-08T23:04:15.685Z,1.60
2018-08-08T23:06:43.919Z,1.40
2018-08-08T23:09:12.605Z,1.00
2018-08-08T23:11:41.044Z,0.93
2018-08-08T23:14:09.215Z,1.03
2018-08-08T23:16:37.641Z,1.40
2018-08-08T23:19:05.805Z,1.20
2018-08-08T23:21:34.096Z,1.10
2018-08-08T23:24:02.275Z,1.10
2018-08-08T23:26:30.492Z,1.00
2018-08-08T23:28:58.984Z,1.13
2018-08-08T23:31:27.627Z,1.10
2018-08-08T23:33:56.017Z,1.10
2018-08-08T23:36:24.202Z,1.17
2018-08-08T23:38:52.365Z,1.60
2018-08-08T23:41:20.534Z,1.87
2018-08-08T23:43:48.716Z,1.23
2018-08-08T23:46:17.238Z,1.80
2018-08-08T23:48:45.500Z,1.50
2018-08-08T23:51:13.718Z,2.00
2018-08-08T23:53:42.013Z,2.13
2018-08-08T23:56:10.416Z,1.70
2018-08-08T23:58:38.667Z,1.40
